Time;durP1;ratioP1;P1;durP2;ratioP2;P2;SDS_P1;SDS_P2;PMS_P1;PMS_P2;Temp;Humidity;BMP_temperature;BMP_pressure;BME280_temperature;BME280_humidity;BME280_pressure;Samples;Min_cycle;Max_cycle;Signal;HPM_P1;HPM_P2
2022/09/27 00:00:28;;;;;;;7.10;1.27;;;;;;;;;;5087774;27;20936;-80
2022/09/27 00:02:54;;;;;;;7.70;1.20;;;;;;;;;;5114794;27;20744;-80
2022/09/27 00:05:21;;;;;;;8.87;1.30;;;;;;;;;;5110217;27;20410;-80
2022/09/27 00:07:47;;;;;;;5.30;1.33;;;;;;;;;;5076569;28;20429;-81
2022/09/27 00:10:13;;;;;;;6.22;1.35;;;;;;;;;;5108031;27;20415;-80
2022/09/27 00:12:39;;;;;;;7.47;1.52;;;;;;;;;;5114611;27;20414;-80
2022/09/27 00:15:06;;;;;;;7.32;1.45;;;;;;;;;;5083795;28;20508;-81
2022/09/27 00:17:33;;;;;;;4.90;1.00;;;;;;;;;;5091484;28;20931;-80
2022/09/27 00:19:59;;;;;;;8.18;1.50;;;;;;;;;;5093987;28;20414;-81
2022/09/27 00:22:25;;;;;;;8.65;1.50;;;;;;;;;;5099746;27;20502;-80
2022/09/27 00:24:51;;;;;;;6.68;1.10;;;;;;;;;;5099998;27;20415;-81
2022/09/27 00:27:18;;;;;;;8.18;1.13;;;;;;;;;;5115970;27;20449;-80
2022/09/27 00:29:45;;;;;;;4.63;1.08;;;;;;;;;;5110161;27;20472;-80
2022/09/27 00:32:11;;;;;;;4.90;1.30;;;;;;;;;;5099197;27;20561;-81
2022/09/27 00:34:37;;;;;;;9.60;1.33;;;;;;;;;;5108430;28;20412;-81
2022/09/27 00:37:03;;;;;;;13.20;1.40;;;;;;;;;;5074287;28;20908;-81
2022/09/27 00:39:29;;;;;;;5.40;1.20;;;;;;;;;;5057927;28;20418;-81
2022/09/27 00:41:55;;;;;;;7.28;1.17;;;;;;;;;;5106518;27;20414;-81
2022/09/27 00:44:28;;;;;;;6.90;1.30;;;;;;;;;;5081250;27;20412;-81
2022/09/27 00:46:54;;;;;;;4.80;1.33;;;;;;;;;;5113747;27;20492;-82
2022/09/27 00:49:35;;;;;;;6.68;1.42;;;10.00;99.90;;;;;;5099055;27;20460;-81
2022/09/27 00:52:02;;;;;;;6.37;1.40;;;;;;;;;;5075280;28;20565;-80
2022/09/27 00:54:32;;;;;;;7.90;1.20;;;10.00;99.90;;;;;;5100292;27;20418;-81
2022/09/27 00:56:58;;;;;;;5.93;1.37;;;9.90;99.90;;;;;;5115710;27;20479;-81
2022/09/27 00:59:34;;;;;;;8.43;1.50;;;9.90;99.90;;;;;;5099176;28;20807;-81
2022/09/27 01:02:03;;;;;;;8.47;1.40;;;9.90;99.90;;;;;;5093461;28;20412;-80
2022/09/27 01:04:30;;;;;;;5.78;1.20;;;;;;;;;;5080662;28;20414;-81
2022/09/27 01:06:56;;;;;;;9.82;1.48;;;;;;;;;;5081746;27;20422;-81
2022/09/27 01:09:22;;;;;;;4.97;1.52;;;;;;;;;;5098801;28;20428;-80
2022/09/27 01:12:34;;;;;;;8.07;1.65;;;9.80;99.90;;;;;;5104340;27;20740;-80
2022/09/27 01:15:00;;;;;;;8.47;1.50;;;;;;;;;;5116122;27;20403;-80
2022/09/27 01:17:35;;;;;;;6.38;1.42;;;;;;;;;;5096312;28;20805;-81
2022/09/27 01:20:04;;;;;;;9.00;1.63;;;;;;;;;;5067440;27;20464;-81
2022/09/27 01:22:35;;;;;;;6.97;1.47;;;;;;;;;;5075364;28;20492;-79
2022/09/27 01:25:07;;;;;;;7.10;1.42;;;;;;;;;;5086554;28;20403;-81
2022/09/27 01:27:50;;;;;;;6.53;1.30;;;;;;;;;;5094921;28;20491;-81
2022/09/27 01:30:16;;;;;;;11.93;1.77;;;;;;;;;;5083577;28;20421;-80
2022/09/27 01:32:42;;;;;;;8.27;1.30;;;;;;;;;;5084650;27;20498;-80
2022/09/27 01:35:08;;;;;;;6.75;1.50;;;;;;;;;;5089872;28;20818;-80
2022/09/27 01:37:37;;;;;;;8.68;1.40;;;;;;;;;;5073944;28;20458;-80
2022/09/27 01:40:23;;;;;;;6.50;1.33;;;;;;;;;;5073861;28;20454;-80
2022/09/27 01:42:52;;;;;;;9.02;1.55;;;;;;;;;;5084652;28;20936;-80
2022/09/27 01:45:18;;;;;;;9.65;1.50;;;;;;;;;;5092217;27;20418;-79
2022/09/27 01:47:56;;;;;;;6.47;1.60;;;;;;;;;;5078436;28;20449;-80
2022/09/27 01:50:34;;;;;;;6.07;1.40;;;;;;;;;;5108402;27;20418;-80
2022/09/27 01:53:03;;;;;;;6.68;1.30;;;;;;;;;;5114743;27;20438;-81
2022/09/27 01:55:34;;;;;;;7.45;1.48;;;9.70;99.90;;;;;;5096779;28;20497;-81
2022/09/27 01:58:04;;;;;;;10.27;1.42;;;;;;;;;;5088627;27;20419;-80
2022/09/27 02:00:31;;;;;;;7.93;1.30;;;;;;;;;;5102050;28;20413;-81
2022/09/27 02:02:57;;;;;;;6.80;1.42;;;;;;;;;;5067415;28;20402;-81
2022/09/27 02:05:25;;;;;;;6.85;1.33;;;;;;;;;;5076688;28;20412;-81
2022/09/27 02:07:56;;;;;;;5.50;1.80;;;;;;;;;;5076001;28;20452;-82
2022/09/27 02:10:26;;;;;;;5.03;1.08;;;9.70;99.90;;;;;;5095794;27;20960;-82
2022/09/27 02:13:12;;;;;;;7.47;1.35;;;9.60;99.90;;;;;;5114727;27;20394;-81
2022/09/27 02:15:48;;;;;;;8.50;1.40;;;;;;;;;;5109235;27;20767;-81
2022/09/27 02:18:17;;;;;;;5.67;1.20;;;;;;;;;;5091300;28;20527;-81
2022/09/27 02:20:50;;;;;;;5.25;1.17;;;9.70;99.90;;;;;;5102277;27;20498;-81
2022/09/27 02:23:26;;;;;;;4.43;1.40;;;;;;;;;;5078595;28;20898;-81
2022/09/27 02:26:02;;;;;;;4.43;1.08;;;9.90;99.90;;;;;;5088565;27;20486;-81
2022/09/27 02:28:41;;;;;;;5.38;0.90;;;9.70;99.90;;;;;;5113280;27;20478;-81
2022/09/27 02:31:07;;;;;;;6.32;1.27;;;;;;;;;;5097922;28;20462;-81
2022/09/27 02:33:45;;;;;;;7.25;1.00;;;;;;;;;;5107153;28;20406;-82
2022/09/27 02:36:11;;;;;;;6.40;1.58;;;;;;;;;;5097522;28;20399;-81
2022/09/27 02:38:38;;;;;;;8.80;1.50;;;;;;;;;;5087286;28;21105;-82
2022/09/27 02:41:04;;;;;;;6.05;1.95;;;;;;;;;;5094393;28;20396;-81
2022/09/27 02:43:32;;;;;;;6.60;2.15;;;9.60;99.90;;;;;;5092052;28;20870;-81
2022/09/27 02:46:16;;;;;;;7.22;2.35;;;;;;;;;;5084802;28;20420;-81
2022/09/27 02:49:15;;;;;;;6.05;1.90;;;9.40;99.90;;;;;;5071145;28;20419;-81
2022/09/27 02:51:54;;;;;;;8.43;1.88;;;;;;;;;;5101075;28;21264;-81
2022/09/27 02:54:25;;;;;;;7.00;2.20;;;;;;;;;;5081180;28;20417;-81
2022/09/27 02:57:14;;;;;;;6.82;2.00;;;9.30;99.90;;;;;;5084700;28;20420;-81
2022/09/27 02:59:46;;;;;;;4.82;1.30;;;;;;;;;;5081976;28;20402;-81
2022/09/27 03:02:14;;;;;;;4.00;0.90;;;;;;;;;;5090519;28;20418;-80
2022/09/27 03:04:44;;;;;;;7.10;1.30;;;;;;;;;;5103519;27;20828;-81
2022/09/27 03:07:10;;;;;;;7.18;1.00;;;;;;;;;;5110833;28;20412;-80
2022/09/27 03:09:46;;;;;;;6.13;1.20;;;9.10;99.90;;;;;;5086654;28;20411;-73
2022/09/27 03:12:13;;;;;;;4.20;0.85;;;;;;;;;;5100163;28;20408;-73
2022/09/27 03:14:39;;;;;;;4.15;0.90;;;;;;;;;;5108211;27;20493;-74
2022/09/27 03:17:05;;;;;;;6.93;1.10;;;;;;;;;;5105690;28;20423;-73
2022/09/27 03:19:31;;;;;;;4.63;1.30;;;;;;;;;;5120011;27;20973;-73
2022/09/27 03:21:57;;;;;;;3.63;0.90;;;;;;;;;;5106102;28;20768;-73
2022/09/27 03:24:23;;;;;;;5.93;1.05;;;;;;;;;;5094555;28;20490;-73
2022/09/27 03:26:49;;;;;;;6.70;0.87;;;;;;;;;;5080282;27;20406;-74
2022/09/27 03:29:15;;;;;;;6.35;1.27;;;;;;;;;;5120025;27;20433;-74
2022/09/27 03:31:42;;;;;;;6.45;1.08;;;;;;;;;;5099215;28;20456;-73
2022/09/27 03:34:08;;;;;;;4.72;0.95;;;;;;;;;;5095896;27;20822;-73
2022/09/27 03:36:34;;;;;;;6.85;1.25;;;;;;;;;;5116311;27;20762;-73
2022/09/27 03:39:00;;;;;;;4.32;1.02;;;;;;;;;;5120178;27;20422;-74
2022/09/27 03:41:26;;;;;;;5.22;1.13;;;;;;;;;;5101269;27;20496;-73
2022/09/27 03:43:55;;;;;;;5.18;1.15;;;;;;;;;;5113759;27;20418;-73
2022/09/27 03:46:21;;;;;;;5.70;0.90;;;;;;;;;;5100089;28;20423;-74
2022/09/27 03:48:47;;;;;;;4.07;1.17;;;;;;;;;;5095149;27;20422;-73
2022/09/27 03:51:13;;;;;;;6.20;1.20;;;;;;;;;;5099971;28;20406;-73
2022/09/27 03:53:39;;;;;;;8.57;1.60;;;;;;;;;;5099461;28;20396;-72
2022/09/27 03:56:05;;;;;;;6.63;1.50;;;;;;;;;;5062736;28;20414;-73
2022/09/27 03:58:31;;;;;;;8.07;1.40;;;;;;;;;;5075546;28;20508;-73
2022/09/27 04:00:57;;;;;;;6.28;1.25;;;;;;;;;;5093333;27;20876;-73
2022/09/27 04:03:25;;;;;;;6.55;1.38;;;;;;;;;;5114488;27;20792;-73
2022/09/27 04:05:52;;;;;;;5.38;1.13;;;;;;;;;;5114431;27;20476;-73
2022/09/27 04:08:18;;;;;;;4.13;1.10;;;;;;;;;;5116597;27;20406;-73
2022/09/27 04:10:44;;;;;;;7.35;1.50;;;;;;;;;;5116363;27;20395;-72
2022/09/27 04:13:10;;;;;;;5.80;1.20;;;;;;;;;;5081650;28;20418;-73
2022/09/27 04:15:38;;;;;;;5.88;1.20;;;;;;;;;;5090302;28;20932;-73
2022/09/27 04:18:04;;;;;;;5.40;1.17;;;;;;;;;;5095340;27;20472;-73
2022/09/27 04:20:30;;;;;;;4.07;1.17;;;;;;;;;;5105189;27;20402;-73
2022/09/27 04:22:56;;;;;;;4.55;0.95;;;;;;;;;;5094366;27;20395;-73
2022/09/27 04:25:22;;;;;;;6.97;1.30;;;;;;;;;;5103724;27;20517;-73
2022/09/27 04:27:50;;;;;;;3.83;1.10;;;;;;;;;;5085562;28;20429;-72
2022/09/27 04:30:17;;;;;;;5.87;1.30;;;;;;;;;;5095221;28;20424;-73
2022/09/27 04:32:46;;;;;;;3.92;1.20;;;;;;;;;;5094622;28;20918;-73
2022/09/27 04:37:57;;;;;;;3.17;1.05;;;;;;;;;;5092327;28;20442;-72
2022/09/27 04:40:23;;;;;;;7.57;1.60;;;;;;;;;;5052986;28;20534;-72
2022/09/27 04:42:52;;;;;;;4.20;1.25;;;;;;;;;;5055006;28;20399;-72
2022/09/27 04:45:19;;;;;;;5.38;1.55;;;8.90;99.90;;;;;;5038794;28;20423;-73
2022/09/27 04:47:49;;;;;;;5.45;1.00;;;;;;;;;;5086588;28;20427;-73
2022/09/27 04:50:19;;;;;;;5.88;1.38;;;;;;;;;;5074636;28;20428;-73
2022/09/27 04:52:52;;;;;;;2.90;1.00;;;8.80;99.90;;;;;;5079806;28;20437;-73
2022/09/27 04:55:19;;;;;;;5.68;1.30;;;;;;;;;;5088590;28;20416;-73
2022/09/27 04:57:45;;;;;;;5.82;1.50;;;;;;;;;;5078319;28;20427;-73
2022/09/27 05:00:12;;;;;;;7.63;1.40;;;;;;;;;;5082801;28;20409;-73
2022/09/27 05:02:38;;;;;;;4.85;1.30;;;;;;;;;;5074753;28;20746;-73
2022/09/27 05:05:05;;;;;;;9.27;1.60;;;;;;;;;;5045676;28;20415;-73
2022/09/27 05:07:33;;;;;;;8.32;1.40;;;8.50;99.90;;;;;;5079488;28;20466;-73
2022/09/27 05:09:59;;;;;;;8.85;1.52;;;;;;;;;;5073785;28;20910;-74
2022/09/27 05:12:25;;;;;;;6.28;1.40;;;;;;;;;;5075228;28;20408;-73
2022/09/27 05:14:52;;;;;;;6.82;1.70;;;;;;;;;;5083695;28;20472;-72
2022/09/27 05:17:20;;;;;;;7.03;1.60;;;;;;;;;;5070193;28;20507;-73
2022/09/27 05:19:46;;;;;;;7.07;1.33;;;;;;;;;;5077048;28;20444;-73
2022/09/27 05:22:12;;;;;;;8.45;1.60;;;;;;;;;;5074952;28;20441;-73
2022/09/27 05:24:38;;;;;;;5.90;1.38;;;;;;;;;;5077455;28;20422;-73
2022/09/27 05:27:07;;;;;;;4.35;1.48;;;;;;;;;;5074199;28;20417;-74
2022/09/27 05:29:33;;;;;;;5.38;1.73;;;;;;;;;;5052448;28;20899;-73
2022/09/27 05:32:00;;;;;;;6.57;1.48;;;;;;;;;;5074052;28;20404;-73
2022/09/27 05:34:26;;;;;;;8.00;1.52;;;;;;;;;;5064700;28;20797;-73
2022/09/27 05:36:52;;;;;;;7.78;1.48;;;;;;;;;;5069551;28;20423;-74
2022/09/27 05:39:18;;;;;;;5.63;1.50;;;;;;;;;;5063297;28;20422;-73
2022/09/27 05:41:45;;;;;;;10.88;1.90;;;;;;;;;;5079509;28;20504;-73
2022/09/27 05:44:14;;;;;;;7.03;1.70;;;;;;;;;;5055078;28;20900;-74
2022/09/27 05:46:40;;;;;;;7.35;1.88;;;;;;;;;;5060559;28;20749;-74
2022/09/27 05:49:06;;;;;;;8.63;1.60;;;;;;;;;;5037413;28;20407;-73
2022/09/27 05:51:33;;;;;;;9.57;1.98;;;;;;;;;;5053338;28;20483;-73
2022/09/27 05:53:59;;;;;;;8.47;1.67;;;;;;;;;;5073502;28;20776;-73
2022/09/27 05:56:25;;;;;;;10.15;1.80;;;;;;;;;;5087605;28;20412;-74
2022/09/27 05:58:51;;;;;;;6.10;1.95;;;;;;;;;;5058554;28;20519;-74
2022/09/27 06:01:17;;;;;;;7.32;2.20;;;;;;;;;;5053363;28;20420;-73
2022/09/27 06:03:45;;;;;;;7.45;1.55;;;;;;;;;;5038650;28;20470;-73
2022/09/27 06:06:11;;;;;;;7.68;1.42;;;;;;;;;;5071574;28;20413;-74
2022/09/27 06:08:38;;;;;;;7.68;2.85;;;;;;;;;;5080918;28;20451;-73
2022/09/27 06:11:05;;;;;;;6.05;1.73;;;;;;;;;;5075421;28;20423;-73
2022/09/27 06:13:41;;;;;;;7.43;1.77;;;;;;;;;;5093720;28;20453;-73
2022/09/27 06:16:10;;;;;;;5.93;1.80;;;;;;;;;;5085282;28;20427;-73
2022/09/27 06:18:36;;;;;;;7.55;1.55;;;;;;;;;;5059737;28;20422;-74
2022/09/27 06:21:03;;;;;;;11.88;1.83;;;;;;;;;;5070662;28;20421;-74
2022/09/27 06:23:33;;;;;;;8.98;1.70;;;;;;;;;;5075069;28;20410;-73
2022/09/27 06:26:04;;;;;;;9.05;2.72;;;;;;;;;;5073441;28;20441;-74
2022/09/27 06:28:30;;;;;;;9.52;2.47;;;;;;;;;;5080539;28;20885;-74
2022/09/27 06:30:59;;;;;;;8.75;2.20;;;;;;;;;;5072684;28;20502;-74
2022/09/27 06:33:26;;;;;;;8.23;1.73;;;;;;;;;;5061181;28;20640;-75
2022/09/27 06:35:53;;;;;;;10.55;1.67;;;;;;;;;;5093351;28;20401;-74
2022/09/27 06:38:24;;;;;;;5.38;1.60;;;;;;;;;;5065517;28;20430;-73
2022/09/27 06:40:50;;;;;;;6.28;1.50;;;;;;;;;;5091900;28;20412;-74
2022/09/27 06:43:21;;;;;;;6.82;2.10;;;9.10;99.90;;;;;;5086659;28;20909;-74
2022/09/27 06:45:47;;;;;;;7.68;1.50;;;;;;;;;;5092324;28;20905;-75
2022/09/27 06:48:15;;;;;;;5.75;1.60;;;8.90;99.90;;;;;;5112823;28;20898;-74
2022/09/27 06:50:45;;;;;;;7.05;1.83;;;;;;;;;;5108044;28;20929;-74
2022/09/27 06:53:15;;;;;;;9.45;1.90;;;;;;;;;;5088030;28;20413;-73
2022/09/27 06:55:42;;;;;;;8.88;2.30;;;;;;;;;;5094012;28;20418;-73
2022/09/27 07:00:57;;;;;;;9.20;1.90;;;;;;;;;;5105721;28;20786;-73
2022/09/27 07:03:30;;;;;;;6.80;1.50;;;;;;;;;;5077649;28;20907;-72
2022/09/27 07:05:57;;;;;;;5.57;1.42;;;;;;;;;;5086593;28;20540;-73
2022/09/27 07:08:27;;;;;;;6.30;1.50;;;;;;;;;;5104337;28;20927;-73
2022/09/27 07:10:54;;;;;;;6.80;2.10;;;;;;;;;;5080319;28;20411;-73
2022/09/27 07:13:20;;;;;;;5.38;1.42;;;;;;;;;;5096568;28;20401;-73
2022/09/27 07:15:46;;;;;;;5.65;1.30;;;;;;;;;;5113660;28;20406;-73
2022/09/27 07:18:12;;;;;;;4.78;1.10;;;;;;;;;;5093803;28;20425;-73
2022/09/27 07:20:39;;;;;;;3.47;0.88;;;;;;;;;;5095048;28;20420;-75
2022/09/27 07:23:05;;;;;;;2.60;0.82;;;;;;;;;;5069084;28;20925;-75
2022/09/27 07:25:32;;;;;;;2.15;0.82;;;;;;;;;;5086466;28;20412;-74
2022/09/27 07:28:02;;;;;;;3.87;0.87;;;;;;;;;;5066353;28;20442;-74
2022/09/27 07:30:28;;;;;;;4.65;0.88;;;;;;;;;;5072790;28;20432;-75
2022/09/27 07:32:58;;;;;;;3.72;0.93;;;;;;;;;;5092317;27;20425;-75
2022/09/27 07:35:25;;;;;;;3.78;0.93;;;;;;;;;;5075919;28;20485;-74
2022/09/27 07:37:51;;;;;;;4.53;0.70;;;;;;;;;;5113867;27;20422;-73
2022/09/27 07:40:17;;;;;;;3.05;0.80;;;;;;;;;;5078727;28;20440;-73
2022/09/27 07:42:43;;;;;;;4.03;0.70;;;;;;;;;;5075677;28;20479;-73
2022/09/27 07:45:10;;;;;;;2.65;0.70;;;;;;;;;;5096604;28;20400;-72
2022/09/27 07:47:38;;;;;;;2.60;0.60;;;;;;;;;;5080997;27;20733;-73
2022/09/27 07:50:05;;;;;;;2.57;0.80;;;9.80;99.90;;;;;;5085138;27;20414;-73
2022/09/27 07:52:39;;;;;;;4.95;0.90;;;9.90;99.90;;;;;;5102635;27;20514;-79
2022/09/27 07:55:05;;;;;;;2.05;0.70;;;;;;;;;;5099041;27;20505;-78
2022/09/27 07:57:31;;;;;;;3.45;0.93;;;;;;;;;;5115779;27;20410;-79
2022/09/27 07:59:57;;;;;;;2.92;0.90;;;;;;;;;;5094113;28;20404;-79
2022/09/27 08:02:24;;;;;;;4.13;0.88;;;;;;;;;;5059410;28;20425;-78
2022/09/27 08:04:50;;;;;;;3.90;0.95;;;;;;;;;;5081595;27;20432;-78
2022/09/27 08:07:16;;;;;;;5.28;1.00;;;;;;;;;;5100177;27;20421;-79
2022/09/27 08:09:42;;;;;;;3.67;1.08;;;;;;;;;;5127428;27;20449;-79
2022/09/27 08:12:09;;;;;;;3.75;1.15;;;;;;;;;;5093640;27;20406;-78
2022/09/27 08:14:35;;;;;;;3.07;1.20;;;;;;;;;;5117645;27;20394;-78
2022/09/27 08:17:01;;;;;;;4.82;1.10;;;;;;;;;;5096568;27;20511;-79
2022/09/27 08:19:28;;;;;;;2.65;0.90;;;;;;;;;;5096796;27;20517;-79
2022/09/27 08:21:54;;;;;;;4.38;1.25;;;;;;;;;;5103380;28;20445;-78
2022/09/27 08:24:20;;;;;;;4.07;1.10;;;;;;;;;;5096491;28;20910;-79
2022/09/27 08:26:46;;;;;;;4.80;0.90;;;;;;;;;;5110920;27;20762;-78
2022/09/27 08:29:13;;;;;;;4.07;0.90;;;;;;;;;;5102543;28;20428;-81
2022/09/27 08:31:41;;;;;;;5.97;1.00;;;;;;;;;;5082329;28;21475;-81
2022/09/27 08:34:07;;;;;;;4.28;0.90;;;;;;;;;;5094571;27;20460;-81
2022/09/27 08:36:36;;;;;;;5.15;0.90;;;;;;;;;;5082128;27;20484;-81
2022/09/27 08:39:03;;;;;;;4.25;0.90;;;;;;;;;;5079028;28;20420;-82
2022/09/27 08:41:32;;;;;;;3.72;0.90;;;;;;;;;;5077758;27;20491;-81
2022/09/27 08:44:01;;;;;;;3.22;0.70;;;;;;;;;;5076790;28;20753;-81
2022/09/27 08:46:52;;;;;;;3.30;0.85;;;11.50;99.90;;;;;;5078867;28;20748;-78
2022/09/27 08:49:26;;;;;;;4.88;1.20;;;;;;;;;;5058084;28;20535;-79
2022/09/27 08:51:53;;;;;;;4.60;1.00;;;;;;;;;;5079607;28;21107;-79
2022/09/27 08:54:21;;;;;;;5.50;1.10;;;;;;;;;;5073161;28;20893;-79
2022/09/27 08:56:50;;;;;;;6.80;1.15;;;11.70;99.90;;;;;;5095309;28;20440;-78
2022/09/27 08:59:20;;;;;;;5.95;0.90;;;11.60;99.90;;;;;;5096946;28;20414;-80
2022/09/27 09:01:48;;;;;;;7.32;1.13;;;;;;;;;;5126065;27;20904;-79
2022/09/27 09:04:37;;;;;;;8.02;1.08;;;11.70;99.90;;;;;;5084661;28;20410;-79
2022/09/27 09:07:03;;;;;;;6.95;1.50;;;;;;;;;;5096659;28;20408;-79
2022/09/27 09:09:43;;;;;;;4.55;1.40;;;;;;;;;;5064993;28;20416;-78
2022/09/27 09:12:47;;;;;;;4.18;1.30;;;;;;;;;;5078994;27;20850;-79
2022/09/27 09:15:25;;;;;;;4.43;1.00;;;;;;;;;;5084569;28;20439;-79
2022/09/27 09:17:51;;;;;;;6.25;1.02;;;;;;;;;;5075720;28;21614;-79
2022/09/27 09:20:21;;;;;;;6.63;1.30;;;;;;;;;;5075872;28;20414;-79
2022/09/27 09:22:50;;;;;;;7.38;1.23;;;;;;;;;;5080178;28;20851;-79
2022/09/27 09:25:16;;;;;;;5.20;1.17;;;;;;;;;;5066019;28;20451;-80
2022/09/27 09:27:42;;;;;;;5.90;1.02;;;;;;;;;;5077042;28;20425;-79
2022/09/27 09:30:17;;;;;;;4.13;0.90;;;;;;;;;;5058973;28;20478;-79
2022/09/27 09:32:49;;;;;;;3.30;0.85;;;;;;;;;;5080441;27;20414;-80
2022/09/27 09:35:17;;;;;;;2.58;0.93;;;;;;;;;;5073535;28;20464;-79
2022/09/27 09:37:49;;;;;;;3.33;0.90;;;;;;;;;;5082383;28;20484;-79
2022/09/27 09:40:15;;;;;;;4.60;0.90;;;;;;;;;;5087543;28;20444;-79
2022/09/27 09:42:50;;;;;;;4.68;1.05;;;;;;;;;;5064428;28;21008;-79
2022/09/27 09:45:19;;;;;;;3.58;0.80;;;;;;;;;;5076776;28;20410;-79
2022/09/27 09:48:06;;;;;;;4.70;0.85;;;;;;;;;;5079989;28;20420;-80
2022/09/27 09:50:41;;;;;;;4.60;0.80;;;;;;;;;;5077066;28;20425;-79
2022/09/27 09:53:15;;;;;;;4.50;0.80;;;;;;;;;;5075074;28;21544;-80
2022/09/27 09:55:43;;;;;;;4.35;0.70;;;;;;;;;;5063641;27;20452;-81
2022/09/27 09:58:20;;;;;;;2.67;0.80;;;;;;;;;;5073982;28;20430;-80
2022/09/27 10:00:47;;;;;;;2.92;0.95;;;;;;;;;;5077435;28;20414;-80
2022/09/27 10:03:13;;;;;;;4.45;0.90;;;;;;;;;;5065833;27;20410;-80
2022/09/27 10:05:42;;;;;;;5.35;0.90;;;;;;;;;;5089631;28;20762;-80
2022/09/27 10:08:16;;;;;;;4.82;0.73;;;10.80;99.90;;;;;;5083217;28;20427;-79
2022/09/27 10:10:42;;;;;;;3.17;0.98;;;;;;;;;;5073884;28;20420;-74
2022/09/27 10:13:13;;;;;;;2.80;0.68;;;;;;;;;;5074138;28;20864;-73
2022/09/27 10:15:39;;;;;;;2.90;0.70;;;;;;;;;;5074086;28;20431;-74
2022/09/27 10:18:06;;;;;;;2.28;0.93;;;;;;;;;;5072214;28;20530;-74
2022/09/27 10:20:52;;;;;;;2.17;1.00;;;;;;;;;;5080086;28;20454;-73
2022/09/27 10:23:21;;;;;;;2.90;0.65;;;11.60;99.90;;;;;;5090681;28;20555;-73
2022/09/27 10:25:55;;;;;;;3.75;0.80;;;;;;;;;;5061757;28;20420;-74
2022/09/27 10:28:38;;;;;;;2.30;0.63;;;;;;;;;;5075066;28;20420;-73
2022/09/27 10:31:07;;;;;;;3.55;1.30;;;11.80;99.90;;;;;;5074069;28;20941;-74
2022/09/27 10:33:34;;;;;;;3.30;0.85;;;;;;;;;;5056190;28;20423;-74
2022/09/27 10:36:00;;;;;;;3.45;0.80;;;;;;;;;;5070510;28;20418;-74
2022/09/27 10:38:28;;;;;;;3.45;0.93;;;;;;;;;;5073264;28;20466;-74
2022/09/27 10:40:57;;;;;;;4.47;1.10;;;11.80;99.90;;;;;;5073301;28;20432;-74
2022/09/27 10:43:36;;;;;;;2.30;0.63;;;;;;;;;;5072720;28;20421;-75
2022/09/27 10:46:08;;;;;;;3.80;0.63;;;;;;;;;;5087542;28;20416;-74
2022/09/27 10:48:34;;;;;;;1.08;0.40;;;;;;;;;;5093180;28;20425;-74
2022/09/27 10:51:02;;;;;;;1.67;0.50;;;;;;;;;;5093349;28;20408;-74
2022/09/27 10:53:29;;;;;;;1.90;0.60;;;;;;;;;;5102026;28;20505;-74
2022/09/27 10:55:55;;;;;;;1.52;0.50;;;;;;;;;;5112182;28;20414;-74
2022/09/27 10:58:26;;;;;;;2.70;0.60;;;8.80;99.90;;;;;;5075633;28;20501;-74
2022/09/27 11:00:57;;;;;;;1.33;0.57;;;;;;;;;;5091953;28;20416;-73
2022/09/27 11:03:25;;;;;;;2.30;0.60;;;;;;;;;;5074796;28;20412;-74
2022/09/27 11:05:53;;;;;;;3.67;0.90;;;;;;;;;;5089455;27;20871;-74
2022/09/27 11:08:23;;;;;;;1.48;0.52;;;;;;;;;;5086522;27;20420;-74
2022/09/27 11:11:05;;;;;;;1.20;0.60;;;;;;;;;;5099188;28;20419;-75
2022/09/27 11:13:33;;;;;;;2.88;0.70;;;;;;;;;;5097289;28;20751;-75
2022/09/27 11:16:23;;;;;;;3.00;0.88;;;;;;;;;;5095030;28;20508;-74
2022/09/27 11:19:00;;;;;;;2.85;0.70;;;;;;;;;;5077885;28;20519;-74
2022/09/27 11:21:45;;;;;;;2.78;0.70;;;;;;;;;;5089166;28;20835;-75
2022/09/27 11:24:11;;;;;;;4.53;0.90;;;;;;;;;;5086623;28;20427;-74
2022/09/27 11:26:47;;;;;;;4.27;0.77;;;;;;;;;;5088621;28;20879;-75
2022/09/27 11:29:13;;;;;;;2.73;0.73;;;;;;;;;;5086478;28;20990;-74
2022/09/27 11:32:16;;;;;;;3.00;0.82;;;11.10;99.90;;;;;;5101158;28;20420;-74
2022/09/27 11:35:33;;;;;;;1.90;0.90;;;11.30;99.90;;;;;;5082096;28;20463;-74
2022/09/27 11:38:09;;;;;;;4.57;0.90;;;;;;;;;;5062656;28;20525;-74
2022/09/27 11:40:35;;;;;;;3.70;0.88;;;;;;;;;;5071223;28;20431;-74
2022/09/27 11:43:04;;;;;;;3.33;0.80;;;;;;;;;;5067979;28;20423;-74
2022/09/27 11:45:41;;;;;;;3.17;0.97;;;;;;;;;;5067525;28;20388;-74
2022/09/27 11:48:13;;;;;;;5.53;1.00;;;;;;;;;;5079667;28;20842;-74
2022/09/27 11:50:57;;;;;;;4.30;0.98;;;11.50;99.90;;;;;;5084551;28;20400;-74
2022/09/27 11:53:25;;;;;;;3.38;0.82;;;11.50;99.90;;;;;;5077391;27;20992;-79
2022/09/27 11:55:59;;;;;;;2.00;0.80;;;;;;;;;;5085619;28;20511;-78
2022/09/27 11:58:25;;;;;;;1.77;0.73;;;;;;;;;;5082961;28;20425;-78
2022/09/27 12:00:51;;;;;;;3.80;0.77;;;;;;;;;;5080645;28;20517;-78
2022/09/27 12:03:17;;;;;;;4.20;0.80;;;;;;;;;;5085339;28;20481;-78
2022/09/27 12:06:02;;;;;;;3.85;0.90;;;11.80;99.90;;;;;;5087590;28;20482;-78
2022/09/27 12:08:33;;;;;;;3.28;0.80;;;12.00;99.90;;;;;;5103943;27;20424;-78
2022/09/27 12:11:08;;;;;;;3.85;0.90;;;;;;;;;;5104704;27;20448;-78
2022/09/27 12:13:48;;;;;;;1.92;0.60;;;12.00;99.90;;;;;;5110202;27;20505;-78
2022/09/27 12:16:15;;;;;;;2.25;0.70;;;;;;;;;;5115390;27;20777;-79
2022/09/27 12:18:42;;;;;;;2.38;0.70;;;;;;;;;;5109700;27;20470;-78
2022/09/27 12:21:10;;;;;;;11.82;7.03;;;11.40;99.90;;;;;;5096574;28;20384;-78
2022/09/27 12:23:59;;;;;;;6.85;3.83;;;11.30;99.90;;;;;;5083967;28;20410;-79
2022/09/27 12:26:37;;;;;;;14.67;8.03;;;11.20;99.90;;;;;;5082329;28;20422;-78
2022/09/27 12:29:22;;;;;;;3.30;0.88;;;;;;;;;;5086623;27;20494;-78
2022/09/27 12:31:55;;;;;;;3.90;0.90;;;;;;;;;;5099108;27;20451;-79
2022/09/27 12:34:31;;;;;;;4.50;1.45;;;11.60;99.90;;;;;;5084053;27;20426;-78
2022/09/27 12:37:01;;;;;;;4.60;1.10;;;;;;;;;;5085644;27;20422;-78
2022/09/27 12:39:47;;;;;;;3.63;1.37;;;12.10;99.90;;;;;;5083824;27;21528;-79
2022/09/27 12:42:17;;;;;;;5.70;1.27;;;;;;;;;;5084680;27;20429;-79
2022/09/27 12:44:43;;;;;;;5.22;1.08;;;;;;;;;;5089478;28;20418;-78
2022/09/27 12:47:09;;;;;;;3.15;0.98;;;;;;;;;;5077174;27;20707;-79
2022/09/27 12:49:44;;;;;;;3.85;0.70;;;;;;;;;;5103810;27;20406;-78
2022/09/27 12:52:12;;;;;;;6.00;1.10;;;;;;;;;;5089363;28;20408;-79
2022/09/27 12:54:54;;;;;;;4.97;1.00;;;12.50;99.90;;;;;;5071741;27;20414;-78
2022/09/27 12:57:26;;;;;;;3.67;0.73;;;;;;;;;;5098245;27;20513;-78
2022/09/27 12:59:55;;;;;;;4.50;0.98;;;;;;;;;;5105781;28;20795;-78
2022/09/27 13:02:25;;;;;;;3.13;1.00;;;;;;;;;;5093027;28;20443;-78
2022/09/27 13:05:02;;;;;;;2.88;0.80;;;;;;;;;;5095152;27;20472;-79
2022/09/27 13:07:31;;;;;;;1.95;0.70;;;;;;;;;;5077537;27;20744;-79
2022/09/27 13:10:00;;;;;;;3.30;0.90;;;;;;;;;;5087431;27;20474;-78
2022/09/27 13:12:29;;;;;;;2.70;0.90;;;12.60;99.90;;;;;;5107463;27;20447;-79
2022/09/27 13:14:55;;;;;;;6.55;2.53;;;;;;;;;;5091822;28;21036;-78
2022/09/27 13:17:39;;;;;;;10.30;4.88;;;;;;;;;;5097629;27;20457;-78
2022/09/27 13:20:32;;;;;;;7.90;2.72;;;;;;;;;;5072496;28;20409;-78
2022/09/27 13:22:59;;;;;;;4.68;1.10;;;;;;;;;;5102965;27;20493;-73
2022/09/27 13:25:44;;;;;;;4.93;0.90;;;;;;;;;;5103560;28;20988;-73
2022/09/27 13:28:31;;;;;;;2.53;1.08;;;;;;;;;;5096859;27;20461;-73
2022/09/27 13:31:06;;;;;;;13.85;6.68;;;;;;;;;;5089481;28;21560;-73
2022/09/27 13:33:42;;;;;;;3.10;1.10;;;;;;;;;;5083352;28;20426;-74
2022/09/27 13:36:31;;;;;;;3.95;0.98;;;9.60;99.90;;;;;;5093069;27;20471;-73
2022/09/27 13:39:04;;;;;;;3.72;1.00;;;;;;;;;;5084643;27;20418;-74
2022/09/27 13:41:52;;;;;;;1.77;0.70;;;;;;;;;;5084252;28;20490;-74
2022/09/27 13:44:50;;;;;;;2.00;0.85;;;;;;;;;;5095906;27;20445;-74
2022/09/27 13:47:33;;;;;;;1.70;0.80;;;;;;;;;;5058488;27;20913;-74
2022/09/27 13:50:03;;;;;;;3.72;2.70;;;;;;;;;;5069342;27;20452;-75
2022/09/27 13:52:35;;;;;;;4.35;3.08;;;10.20;99.90;;;;;;5106670;27;20428;-74
2022/09/27 13:55:21;;;;;;;3.35;1.70;;;10.30;99.90;;;;;;5092272;28;20424;-74
2022/09/27 13:57:51;;;;;;;4.40;2.63;;;;;;;;;;5106595;27;20437;-74
2022/09/27 14:00:21;;;;;;;2.50;1.02;;;;;;;;;;5090306;28;20427;-74
2022/09/27 14:03:03;;;;;;;3.35;1.73;;;;;;;;;;5123414;27;20415;-74
2022/09/27 14:05:35;;;;;;;2.30;0.70;;;;;;;;;;5103197;27;20417;-74
2022/09/27 14:08:02;;;;;;;2.90;0.82;;;;;;;;;;5077057;28;20422;-74
2022/09/27 14:10:29;;;;;;;10.18;6.50;;;;;;;;;;5079254;28;20454;-74
2022/09/27 14:12:55;;;;;;;3.58;1.58;;;;;;;;;;5073998;28;20928;-73
2022/09/27 14:15:26;;;;;;;12.88;6.95;;;;;;;;;;5101251;27;20449;-74
2022/09/27 14:17:53;;;;;;;24.05;14.07;;;10.30;99.90;;;;;;5105141;27;20425;-73
2022/09/27 14:20:39;;;;;;;4.13;0.90;;;;;;;;;;5076387;28;20470;-74
2022/09/27 14:23:06;;;;;;;2.58;1.00;;;;;;;;;;5083872;28;20496;-74
2022/09/27 14:25:32;;;;;;;4.55;0.90;;;;;;;;;;5098712;27;20422;-74
2022/09/27 14:27:59;;;;;;;3.45;0.90;;;;;;;;;;5103070;28;20441;-74
2022/09/27 14:30:27;;;;;;;2.42;1.10;;;10.60;99.90;;;;;;5090472;28;20401;-73
2022/09/27 14:32:54;;;;;;;4.50;1.83;;;;;;;;;;5079825;28;20415;-74
2022/09/27 14:38:19;;;;;;;2.05;0.77;;;10.70;99.90;;;;;;5101391;28;20424;-74
2022/09/27 14:41:00;;;;;;;3.33;1.40;;;10.80;99.90;;;;;;5091789;28;20448;-74
2022/09/27 14:43:26;;;;;;;6.85;1.73;;;11.00;99.90;;;;;;5105907;28;20504;-74
2022/09/27 14:45:56;;;;;;;6.22;1.60;;;;;;;;;;5097066;28;20408;-75
2022/09/27 14:48:42;;;;;;;2.22;1.10;;;;;;;;;;5102730;28;20763;-74
2022/09/27 14:51:11;;;;;;;3.08;1.10;;;;;;;;;;5105703;28;20602;-74